createdAt,value
2018-03-17T00:00:31.528Z,1008.79
2018-03-17T00:01:31.490Z,1008.72
2018-03-17T00:02:31.501Z,1008.72
2018-03-17T00:03:31.512Z,1008.77
2018-03-17T00:04:31.523Z,1008.8
2018-03-17T00:05:31.536Z,1008.74
2018-03-17T00:06:31.547Z,1008.83
2018-03-17T00:08:31.569Z,1008.73
2018-03-17T00:09:31.581Z,1008.79
2018-03-17T00:10:31.591Z,1008.75
2018-03-17T00:11:31.604Z,1008.82
2018-03-17T00:12:31.614Z,1008.79
2018-03-17T00:13:31.625Z,1008.79
2018-03-17T00:14:31.638Z,1008.82
2018-03-17T00:15:31.648Z,1008.89
2018-03-17T00:16:31.670Z,1008.76
2018-03-17T00:17:31.669Z,1008.85
2018-03-17T00:18:31.684Z,1008.77
2018-03-17T00:19:31.693Z,1008.81
2018-03-17T00:20:31.705Z,1008.76
2018-03-17T00:21:31.717Z,1008.77
2018-03-17T00:23:31.740Z,1008.84
2018-03-17T00:24:31.750Z,1008.8
2018-03-17T00:25:31.761Z,1008.82
2018-03-17T00:26:31.774Z,1008.8
2018-03-17T00:27:31.784Z,1008.84
2018-03-17T00:28:31.794Z,1008.79
2018-03-17T00:29:31.806Z,1008.83
2018-03-17T00:30:31.817Z,1008.82
2018-03-17T00:31:31.828Z,1008.71
2018-03-17T00:32:31.839Z,1008.8
2018-03-17T00:33:31.850Z,1008.74
2018-03-17T00:34:31.869Z,1008.8
2018-03-17T00:35:31.872Z,1008.78
2018-03-17T00:36:31.884Z,1008.7
2018-03-17T00:37:31.896Z,1008.84
2018-03-17T00:38:31.908Z,1008.79
2018-03-17T00:39:31.917Z,1008.92
2018-03-17T00:40:31.928Z,1008.78
2018-03-17T00:41:31.940Z,1008.88
2018-03-17T00:42:31.950Z,1008.75
2018-03-17T00:43:31.962Z,1008.58
2018-03-17T00:44:31.974Z,1008.8
2018-03-17T00:45:31.984Z,1008.74
2018-03-17T00:46:31.994Z,1008.78
2018-03-17T00:47:32.005Z,1008.92
2018-03-17T00:48:32.017Z,1008.71
2018-03-17T00:49:32.035Z,1008.81
2018-03-17T00:50:32.039Z,1008.77
2018-03-17T00:51:32.050Z,1008.76
2018-03-17T00:52:32.060Z,1008.84
2018-03-17T00:53:32.070Z,1008.84
2018-03-17T00:55:32.094Z,1008.73
2018-03-17T00:56:32.105Z,1008.82
2018-03-17T00:57:32.148Z,1008.89
2018-03-17T00:58:32.126Z,1008.8
2018-03-17T00:59:32.138Z,1008.81
2018-03-17T01:00:32.149Z,1008.74
2018-03-17T01:01:32.158Z,1008.95
2018-03-17T01:02:32.170Z,1008.79
2018-03-17T01:03:32.182Z,1008.88
2018-03-17T01:04:32.195Z,1008.76
2018-03-17T01:05:32.203Z,1008.72
2018-03-17T01:06:32.214Z,1008.76
2018-03-17T01:07:32.225Z,1008.75
2018-03-17T01:08:32.236Z,1008.71
2018-03-17T01:09:32.246Z,1008.78
2018-03-17T01:11:32.270Z,1008.79
2018-03-17T01:12:32.285Z,1008.71
2018-03-17T01:13:32.289Z,1008.74
2018-03-17T01:14:32.301Z,1008.84
2018-03-17T01:15:32.311Z,1008.73
2018-03-17T01:16:32.323Z,1008.85
2018-03-17T01:17:32.333Z,1008.85
2018-03-17T01:18:32.345Z,1008.69
2018-03-17T01:19:32.355Z,1008.64
2018-03-17T01:20:32.367Z,1008.78
2018-03-17T01:21:32.377Z,1008.73
2018-03-17T01:22:32.388Z,1008.81
2018-03-17T01:23:32.398Z,1008.76
2018-03-17T01:24:32.409Z,1008.83
2018-03-17T01:25:32.420Z,1008.81
2018-03-17T01:27:32.442Z,1008.8
2018-03-17T01:28:32.452Z,1008.83
2018-03-17T01:29:32.464Z,1008.81
2018-03-17T01:30:32.474Z,1008.74
2018-03-17T01:31:32.485Z,1008.74
2018-03-17T01:32:32.495Z,1008.79
2018-03-17T01:33:32.507Z,1008.81
2018-03-17T01:34:32.517Z,1008.78
2018-03-17T01:35:32.530Z,1008.79
2018-03-17T01:36:32.539Z,1008.82
2018-03-17T01:37:32.549Z,1008.76
2018-03-17T01:38:32.561Z,1008.83
2018-03-17T01:39:32.575Z,1008.77
2018-03-17T01:40:32.632Z,1008.91
2018-03-17T01:41:32.593Z,1008.78
2018-03-17T01:43:32.615Z,1008.79
2018-03-17T01:44:32.626Z,1008.82
2018-03-17T01:45:32.636Z,1008.89
2018-03-17T01:46:32.647Z,1008.82
2018-03-17T01:47:32.658Z,1008.77
2018-03-17T01:48:32.668Z,1008.81
2018-03-17T01:49:32.678Z,1008.84
2018-03-17T01:50:32.690Z,1008.81
2018-03-17T01:51:32.701Z,1008.72
2018-03-17T01:52:32.710Z,1008.48
2018-03-17T01:53:32.724Z,1008.76
2018-03-17T01:54:32.733Z,1008.8
2018-03-17T01:55:32.793Z,1008.74
2018-03-17T01:56:32.754Z,1008.69
2018-03-17T01:58:32.776Z,1008.55
2018-03-17T01:59:32.786Z,1008.65
2018-03-17T02:00:32.797Z,1008.56
2018-03-17T02:01:32.810Z,1008.54
2018-03-17T02:02:32.819Z,1008.55
2018-03-17T02:03:32.828Z,1008.59
2018-03-17T02:04:32.848Z,1008.48
2018-03-17T02:05:32.850Z,1008.4
2018-03-17T02:06:32.860Z,1008.38
2018-03-17T02:07:32.872Z,1008.54
2018-03-17T02:08:32.882Z,1008.46
2018-03-17T02:09:32.893Z,1008.52
2018-03-17T02:10:32.903Z,1008.46
2018-03-17T02:11:32.913Z,1008.48
2018-03-17T02:12:32.924Z,1008.57
2018-03-17T02:13:32.934Z,1008.44
2018-03-17T02:14:32.944Z,1008.36
2018-03-17T02:15:32.956Z,1008.6
2018-03-17T02:16:32.966Z,1008.42
2018-03-17T02:17:32.976Z,1008.44
2018-03-17T02:18:32.993Z,1008.44
2018-03-17T02:19:32.999Z,1008.49
2018-03-17T02:20:33.009Z,1008.47
2018-03-17T02:21:33.018Z,1008.48
2018-03-17T02:22:33.029Z,1008.45
2018-03-17T02:23:33.079Z,1008.49
2018-03-17T02:24:33.051Z,1008.48
2018-03-17T02:25:33.060Z,1008.49
2018-03-17T02:26:33.072Z,1008.52
2018-03-17T02:27:33.082Z,1008.55
2018-03-17T02:28:33.092Z,1008.65
2018-03-17T02:30:33.114Z,1008.52
2018-03-17T02:31:33.126Z,1008.57
2018-03-17T02:32:33.137Z,1008.47
2018-03-17T02:33:33.145Z,1008.48
2018-03-17T02:34:33.155Z,1008.55
2018-03-17T02:35:33.180Z,1008.6
2018-03-17T02:36:33.176Z,1008.5
2018-03-17T02:37:33.187Z,1008.59
2018-03-17T02:38:33.198Z,1008.58
2018-03-17T02:39:33.208Z,1008.59
2018-03-17T02:40:33.218Z,1008.6
2018-03-17T02:41:33.229Z,1008.54
2018-03-17T02:42:33.240Z,1008.57
2018-03-17T02:43:33.300Z,1008.66
2018-03-17T02:44:33.260Z,1008.65
2018-03-17T02:46:33.331Z,1008.7
2018-03-17T02:47:33.292Z,1008.68
2018-03-17T02:48:33.304Z,1008.66
2018-03-17T02:49:33.314Z,1008.6
2018-03-17T02:50:33.325Z,1008.65
2018-03-17T02:51:33.333Z,1008.59
2018-03-17T02:52:33.348Z,1008.62
2018-03-17T02:53:33.355Z,1008.63
2018-03-17T02:54:33.365Z,1008.64
2018-03-17T02:55:33.377Z,1008.74
2018-03-17T02:56:33.387Z,1008.67
2018-03-17T02:57:33.397Z,1008.8
2018-03-17T02:58:33.509Z,1008.86
2018-03-17T02:59:33.423Z,1008.76
2018-03-17T03:00:33.429Z,1008.75
2018-03-17T03:02:33.450Z,1008.91
2018-03-17T03:03:33.464Z,1008.93
2018-03-17T03:04:33.471Z,1008.78
2018-03-17T03:05:33.480Z,1008.86
2018-03-17T03:06:33.496Z,1008.87
2018-03-17T03:07:33.503Z,1008.97
2018-03-17T03:08:33.513Z,1008.87
2018-03-17T03:09:33.523Z,1008.93
2018-03-17T03:10:33.533Z,1008.89
2018-03-17T03:11:33.548Z,1008.91
2018-03-17T03:12:33.554Z,1008.87
2018-03-17T03:13:33.564Z,1008.93
2018-03-17T03:14:33.576Z,1008.95
2018-03-17T03:15:33.586Z,1009.01
2018-03-17T03:16:33.597Z,1008.94
2018-03-17T03:18:33.667Z,1009.07
2018-03-17T03:19:33.642Z,1009.05
2018-03-17T03:20:33.688Z,1008.98
2018-03-17T03:21:33.649Z,1008.93
2018-03-17T03:22:33.659Z,1009.04
2018-03-17T03:23:33.670Z,1009.05
2018-03-17T03:24:33.680Z,1009.05
2018-03-17T03:25:33.740Z,1009.06
2018-03-17T03:26:33.701Z,1009.02
2018-03-17T03:27:33.711Z,1008.98
2018-03-17T03:28:33.722Z,1008.93
2018-03-17T03:29:33.732Z,1009.01
2018-03-17T03:30:33.746Z,1009.07
2018-03-17T03:31:33.755Z,1008.87
2018-03-17T03:33:33.776Z,1009
2018-03-17T03:34:33.785Z,1009.01
2018-03-17T03:35:33.795Z,1008.93
2018-03-17T03:36:33.807Z,1009.03
2018-03-17T03:37:33.817Z,1008.99
2018-03-17T03:38:33.827Z,1008.97
2018-03-17T03:39:33.836Z,1009.07
2018-03-17T03:40:33.847Z,1009.19
2018-03-17T03:41:33.857Z,1009.24
2018-03-17T03:42:33.868Z,1009.14
2018-03-17T03:43:33.879Z,1009.22
2018-03-17T03:44:33.889Z,1009.04
2018-03-17T03:45:33.898Z,1009.09
2018-03-17T03:46:33.910Z,1008.98
2018-03-17T03:47:33.920Z,1009.08
2018-03-17T03:48:33.930Z,1009.07
2018-03-17T03:49:33.941Z,1009.09
2018-03-17T03:50:33.951Z,1009.18
2018-03-17T03:51:33.962Z,1009.05
2018-03-17T03:52:33.970Z,1009.09
2018-03-17T03:53:33.982Z,1009.04
2018-03-17T03:54:33.992Z,1009.14
2018-03-17T03:55:34.003Z,1009.12
2018-03-17T03:56:34.013Z,1009.17
2018-03-17T03:57:34.030Z,1009.14
2018-03-17T03:58:34.034Z,1009.15
2018-03-17T03:59:34.044Z,1009.14
2018-03-17T04:00:34.052Z,1009.19
2018-03-17T04:01:34.064Z,1009.29
2018-03-17T04:02:34.077Z,1009.23
2018-03-17T04:03:34.085Z,1009.2
2018-03-17T04:05:34.105Z,1009.24
2018-03-17T04:06:34.116Z,1009.27
2018-03-17T04:07:34.127Z,1009.2
2018-03-17T04:08:34.137Z,1009.19
2018-03-17T04:09:34.147Z,1009.2
2018-03-17T04:10:34.158Z,1009.25
2018-03-17T04:11:34.167Z,1009.25
2018-03-17T04:12:34.178Z,1009.2
2018-03-17T04:13:34.189Z,1009.22
2018-03-17T04:14:34.198Z,1009.25
2018-03-17T04:15:34.209Z,1009.21
2018-03-17T04:16:34.320Z,1009.18
2018-03-17T04:17:34.231Z,1009.22
2018-03-17T04:18:34.240Z,1009.29
2018-03-17T04:19:34.251Z,1009.25
2018-03-17T04:21:34.272Z,1009.35
2018-03-17T04:22:34.283Z,1009.29
2018-03-17T04:23:34.292Z,1009.15
2018-03-17T04:24:34.303Z,1009.41
2018-03-17T04:25:34.312Z,1009.19
2018-03-17T04:26:34.323Z,1009.24
2018-03-17T04:27:34.334Z,1009.29
2018-03-17T04:28:34.344Z,1009.19
2018-03-17T04:29:34.354Z,1009.23
2018-03-17T04:30:34.364Z,1009.26
2018-03-17T04:31:34.375Z,1009.34
2018-03-17T04:32:34.386Z,1009.26
2018-03-17T04:33:34.395Z,1009.28
2018-03-17T04:34:34.405Z,1009.36
2018-03-17T04:35:34.417Z,1009.23
2018-03-17T04:37:34.436Z,1009.31
2018-03-17T04:38:34.446Z,1009.16
2018-03-17T04:39:34.457Z,1009.19
2018-03-17T04:40:34.467Z,1009.37
2018-03-17T04:41:34.477Z,1009.35
2018-03-17T04:42:34.487Z,1009.27
2018-03-17T04:43:34.548Z,1009.32
2018-03-17T04:44:34.508Z,1009.3
2018-03-17T04:45:34.518Z,1009.25
2018-03-17T04:46:34.529Z,1009.36
2018-03-17T04:47:34.539Z,1009.28
2018-03-17T04:48:34.549Z,1009.29
2018-03-17T04:49:34.559Z,1009.23
2018-03-17T04:50:34.570Z,1009.2
2018-03-17T04:51:34.579Z,1009.42
2018-03-17T04:53:34.600Z,1009.35
2018-03-17T04:54:34.610Z,1009.39
2018-03-17T04:55:34.620Z,1009.41
2018-03-17T04:56:34.631Z,1009.3
2018-03-17T04:57:34.641Z,1009.32
2018-03-17T04:58:34.650Z,1009.31
2018-03-17T04:59:34.661Z,1009.27
2018-03-17T05:00:34.670Z,1009.25
2018-03-17T05:01:34.682Z,1009.32
2018-03-17T05:02:34.691Z,1009.33
2018-03-17T05:03:34.701Z,1009.39
2018-03-17T05:04:34.712Z,1009.35
2018-03-17T05:05:34.723Z,1009.44
2018-03-17T05:06:34.934Z,1009.36
2018-03-17T05:08:34.754Z,1009.41
2018-03-17T05:09:34.763Z,1009.37
2018-03-17T05:10:34.774Z,1009.39
2018-03-17T05:11:34.835Z,1009.44
2018-03-17T05:12:34.795Z,1009.47
2018-03-17T05:13:34.804Z,1009.55
2018-03-17T05:14:34.815Z,1009.38
2018-03-17T05:15:34.830Z,1009.42
2018-03-17T05:16:34.835Z,1009.45
2018-03-17T05:17:34.845Z,1009.44
2018-03-17T05:18:34.855Z,1009.41
2018-03-17T05:19:34.866Z,1009.52
2018-03-17T05:20:34.874Z,1009.51
2018-03-17T05:21:34.886Z,1009.35
2018-03-17T05:22:34.895Z,1009.49
2018-03-17T05:23:34.907Z,1009.52
2018-03-17T05:24:34.915Z,1009.48
2018-03-17T05:25:34.926Z,1009.61
2018-03-17T05:26:34.937Z,1009.46
2018-03-17T05:27:34.945Z,1009.52
2018-03-17T05:28:34.956Z,1009.51
2018-03-17T05:29:34.967Z,1009.57
2018-03-17T05:30:34.977Z,1009.59
2018-03-17T05:31:34.986Z,1009.48
2018-03-17T05:32:34.996Z,1009.45
2018-03-17T05:33:35.007Z,1009.43
2018-03-17T05:34:35.017Z,1009.49
2018-03-17T05:35:35.049Z,1009.55
2018-03-17T05:36:35.038Z,1009.49
2018-03-17T05:37:35.048Z,1009.54
2018-03-17T05:38:35.057Z,1009.59
2018-03-17T05:40:35.080Z,1009.59
2018-03-17T05:41:35.093Z,1009.72
2018-03-17T05:42:35.098Z,1009.58
2018-03-17T05:43:35.108Z,1009.58
2018-03-17T05:44:35.120Z,1009.55
2018-03-17T05:45:35.129Z,1009.54
2018-03-17T05:46:35.138Z,1009.56
2018-03-17T05:47:35.149Z,1009.5
2018-03-17T05:48:35.160Z,1009.58
2018-03-17T05:49:35.269Z,1009.59
2018-03-17T05:50:35.180Z,1009.58
2018-03-17T05:51:35.190Z,1009.62
2018-03-17T05:52:35.200Z,1009.64
2018-03-17T05:53:35.210Z,1009.79
2018-03-17T05:54:35.220Z,1009.78
2018-03-17T05:56:35.241Z,1009.93
2018-03-17T05:57:35.251Z,1009.81
2018-03-17T05:58:35.305Z,1009.81
2018-03-17T05:59:35.272Z,1009.84
2018-03-17T06:00:35.281Z,1009.9
2018-03-17T06:01:35.292Z,1009.78
2018-03-17T06:02:35.302Z,1009.82
2018-03-17T06:03:35.313Z,1009.77
2018-03-17T06:04:35.322Z,1009.7
2018-03-17T06:05:35.334Z,1009.75
2018-03-17T06:06:35.345Z,1009.69
2018-03-17T06:07:35.355Z,1009.58
2018-03-17T06:08:35.365Z,1009.82
2018-03-17T06:09:35.376Z,1009.8
2018-03-17T06:10:35.437Z,1009.63
2018-03-17T06:12:35.417Z,1009.72
2018-03-17T06:13:35.421Z,1009.73
2018-03-17T06:14:35.433Z,1009.84
2018-03-17T06:15:35.452Z,1009.71
2018-03-17T06:16:35.461Z,1009.82
2018-03-17T06:17:35.469Z,1009.65
2018-03-17T06:18:35.481Z,1009.86
2018-03-17T06:19:35.495Z,1009.72
2018-03-17T06:20:35.507Z,1009.78
2018-03-17T06:21:35.520Z,1009.76
2018-03-17T06:22:35.537Z,1009.78
2018-03-17T06:23:35.596Z,1009.99
2018-03-17T06:24:35.562Z,1010.17
2018-03-17T06:25:35.574Z,1010.01
2018-03-17T06:26:35.586Z,1010.04
2018-03-17T06:28:35.615Z,1010.05
2018-03-17T06:29:35.628Z,1010.13
2018-03-17T06:30:35.641Z,1010.14
2018-03-17T06:31:35.655Z,1010.11
2018-03-17T06:32:35.672Z,1010.15
2018-03-17T06:33:35.681Z,1010.14
2018-03-17T06:34:35.695Z,1010.16
2018-03-17T06:35:35.709Z,1010.14
2018-03-17T06:36:35.723Z,1010.12
2018-03-17T06:37:35.740Z,1010.26
2018-03-17T06:38:35.750Z,1010.22
2018-03-17T06:39:35.763Z,1010.3
2018-03-17T06:40:35.779Z,1010.32
2018-03-17T06:41:35.792Z,1010.41
2018-03-17T06:43:35.820Z,1010.37
2018-03-17T06:44:35.834Z,1010.52
2018-03-17T06:45:35.850Z,1010.53
2018-03-17T06:46:35.865Z,1010.55
2018-03-17T06:47:35.883Z,1010.48
2018-03-17T06:48:35.894Z,1010.62
2018-03-17T06:49:35.910Z,1010.62
2018-03-17T06:50:35.930Z,1010.68
2018-03-17T06:51:35.940Z,1010.84
2018-03-17T06:52:35.955Z,1010.73
2018-03-17T06:53:35.974Z,1010.68
2018-03-17T06:54:35.987Z,1010.76
2018-03-17T06:55:36.002Z,1010.8
2018-03-17T06:56:36.018Z,1010.75
2018-03-17T06:57:36.033Z,1010.75
2018-03-17T06:58:36.050Z,1010.64
2018-03-17T06:59:36.065Z,1010.69
2018-03-17T07:00:36.087Z,1010.75
2018-03-17T07:01:36.098Z,1010.67
2018-03-17T07:02:36.119Z,1010.68
2018-03-17T07:03:36.129Z,1010.69
2018-03-17T07:04:36.145Z,1010.77
2018-03-17T07:05:36.161Z,1010.73
2018-03-17T07:06:36.176Z,1010.76
2018-03-17T07:07:36.193Z,1010.7
2018-03-17T07:08:36.209Z,1010.86
2018-03-17T07:09:36.230Z,1010.96
2018-03-17T07:10:36.240Z,1010.87
2018-03-17T07:11:36.256Z,1011.07
2018-03-17T07:12:36.272Z,1010.86
2018-03-17T07:13:36.289Z,1010.85
2018-03-17T07:15:36.320Z,1010.82
2018-03-17T07:16:36.339Z,1010.79
2018-03-17T07:17:36.351Z,1010.7
2018-03-17T07:18:36.366Z,1010.73
2018-03-17T07:19:36.384Z,1010.74
2018-03-17T07:20:36.401Z,1010.71
2018-03-17T07:21:36.416Z,1011.24
2018-03-17T07:22:36.433Z,1011.2
2018-03-17T07:23:36.450Z,1011.27
2018-03-17T07:24:36.465Z,1010.95
2018-03-17T07:25:36.482Z,1010.77
2018-03-17T07:26:36.499Z,1010.64
2018-03-17T07:27:36.515Z,1010.82
2018-03-17T07:28:36.531Z,1010.86
2018-03-17T07:29:36.647Z,1010.73
2018-03-17T07:31:36.580Z,1010.57
2018-03-17T07:32:36.594Z,1010.63
2018-03-17T07:33:36.610Z,1010.62
2018-03-17T07:34:36.626Z,1010.53
2018-03-17T07:35:36.690Z,1010.63
2018-03-17T07:36:36.656Z,1010.65
2018-03-17T07:37:36.675Z,1010.65
2018-03-17T07:38:36.685Z,1010.63
2018-03-17T07:39:36.700Z,1010.77
2018-03-17T07:40:36.714Z,1011.05
2018-03-17T07:41:36.730Z,1010.6
2018-03-17T07:42:36.745Z,1010.63
2018-03-17T07:43:36.757Z,1010.55
2018-03-17T07:44:36.776Z,1010.56
2018-03-17T07:45:36.787Z,1010.73
2018-03-17T07:47:36.816Z,1010.93
2018-03-17T07:48:36.831Z,1010.92
2018-03-17T07:49:36.847Z,1010.79
2018-03-17T07:50:36.861Z,1010.57
2018-03-17T07:51:36.884Z,1010.67
2018-03-17T07:52:36.894Z,1010.6
2018-03-17T07:53:36.910Z,1010.6
2018-03-17T07:54:36.926Z,1010.62
2018-03-17T07:55:36.942Z,1010.58
2018-03-17T07:56:36.958Z,1010.6
2018-03-17T07:57:36.973Z,1010.58
2018-03-17T07:58:36.990Z,1010.53
2018-03-17T07:59:37.007Z,1010.54
2018-03-17T08:00:37.023Z,1010.48
2018-03-17T08:01:37.039Z,1010.65
2018-03-17T08:03:37.073Z,1010.44
2018-03-17T08:04:37.091Z,1010.41
2018-03-17T08:05:37.107Z,1010.5
2018-03-17T08:06:37.125Z,1010.42
2018-03-17T08:07:37.143Z,1010.44
2018-03-17T08:08:37.159Z,1010.45
2018-03-17T08:09:37.177Z,1010.49
2018-03-17T08:10:37.200Z,1010.49
2018-03-17T08:11:37.212Z,1010.43
2018-03-17T08:12:37.229Z,1010.47
2018-03-17T08:13:37.247Z,1010.51
2018-03-17T08:14:37.265Z,1010.53
2018-03-17T08:15:37.283Z,1010.6
2018-03-17T08:16:37.301Z,1010.55
2018-03-17T08:18:37.336Z,1010.49
2018-03-17T08:19:37.353Z,1010.54
2018-03-17T08:20:37.371Z,1010.61
2018-03-17T08:21:37.393Z,1010.59
2018-03-17T08:22:37.407Z,1010.7
2018-03-17T08:23:37.424Z,1010.64
2018-03-17T08:24:37.492Z,1010.51
2018-03-17T08:25:37.459Z,1010.71
2018-03-17T08:26:37.476Z,1010.53
2018-03-17T08:27:37.553Z,1010.51
2018-03-17T08:28:37.511Z,1010.49
2018-03-17T08:29:37.528Z,1010.52
2018-03-17T08:30:37.544Z,1010.51
2018-03-17T08:31:37.561Z,1010.41
2018-03-17T08:32:37.578Z,1010.54
2018-03-17T08:33:37.595Z,1010.55
2018-03-17T08:34:37.611Z,1010.41
2018-03-17T08:35:37.627Z,1010.42
2018-03-17T08:36:37.643Z,1010.53
2018-03-17T08:37:37.659Z,1010.53
2018-03-17T08:38:37.675Z,1010.64
2018-03-17T08:39:37.694Z,1010.56
2018-03-17T08:40:37.708Z,1010.61
2018-03-17T08:41:37.724Z,1010.58
2018-03-17T08:42:37.743Z,1010.73
2018-03-17T08:43:37.756Z,1010.52
2018-03-17T08:44:37.823Z,1010.6
2018-03-17T08:45:37.788Z,1010.61
2018-03-17T08:46:37.804Z,1010.63
2018-03-17T08:47:37.821Z,1010.57
2018-03-17T08:48:37.836Z,1010.57
2018-03-17T08:50:37.872Z,1010.54
2018-03-17T08:51:37.884Z,1010.56
2018-03-17T08:52:37.899Z,1010.6
2018-03-17T08:53:37.914Z,1010.62
2018-03-17T08:54:37.930Z,1010.62
2018-03-17T08:55:37.946Z,1010.51
2018-03-17T08:56:37.960Z,1010.57
2018-03-17T08:57:37.976Z,1010.5
2018-03-17T08:58:37.991Z,1010.45
2018-03-17T08:59:38.006Z,1010.72
2018-03-17T09:00:38.021Z,1010.43
2018-03-17T09:01:38.037Z,1010.4
2018-03-17T09:02:38.052Z,1010.5
2018-03-17T09:03:38.067Z,1010.49
2018-03-17T09:04:38.081Z,1010.68
2018-03-17T09:06:38.113Z,1010.63
2018-03-17T09:07:38.127Z,1010.43
2018-03-17T09:08:38.143Z,1010.43
2018-03-17T09:09:38.158Z,1010.53
2018-03-17T09:10:38.173Z,1010.45
2018-03-17T09:11:38.187Z,1010.57
2018-03-17T09:12:38.203Z,1010.49
2018-03-17T09:13:38.219Z,1010.37
2018-03-17T09:14:38.233Z,1010.46
2018-03-17T09:15:38.248Z,1010.44
2018-03-17T09:16:38.264Z,1010.39
2018-03-17T09:17:38.281Z,1010.34
2018-03-17T09:18:38.293Z,1010.37
2018-03-17T09:19:38.313Z,1010.33
2018-03-17T09:20:38.326Z,1010.29
2018-03-17T09:22:38.354Z,1010.25
2018-03-17T09:23:38.373Z,1010.13
2018-03-17T09:24:38.386Z,1010.15
2018-03-17T09:25:38.406Z,1010.26
2018-03-17T09:26:38.417Z,1010.28
2018-03-17T09:27:38.432Z,1010.16
2018-03-17T09:28:38.448Z,1010.2
2018-03-17T09:29:38.464Z,1010.26
2018-03-17T09:30:38.480Z,1010.23
2018-03-17T09:31:38.496Z,1010.18
2018-03-17T09:32:38.511Z,1010.24
2018-03-17T09:33:38.528Z,1010.3
2018-03-17T09:34:38.544Z,1010.15
2018-03-17T09:35:38.560Z,1010.14
2018-03-17T09:36:38.575Z,1010.2
2018-03-17T09:38:38.609Z,1010.09
2018-03-17T09:39:38.627Z,1010.17
2018-03-17T09:40:38.641Z,1010.2
2018-03-17T09:41:38.659Z,1010.45
2018-03-17T09:42:38.680Z,1010.15
2018-03-17T09:43:38.692Z,1010.06
2018-03-17T09:44:38.708Z,1010.15
2018-03-17T09:45:38.725Z,1010.18
2018-03-17T09:46:38.742Z,1010.11
2018-03-17T09:47:38.758Z,1010.17
2018-03-17T09:48:38.775Z,1010.13
2018-03-17T09:49:38.793Z,1010.15
2018-03-17T09:50:38.810Z,1010.24
2018-03-17T09:51:38.826Z,1010.22
2018-03-17T09:53:38.862Z,1010.24
2018-03-17T09:54:38.877Z,1010.12
2018-03-17T09:55:38.898Z,1010.2
2018-03-17T09:56:38.911Z,1010.19
2018-03-17T09:57:38.929Z,1010.17
2018-03-17T09:58:38.946Z,1010.18
2018-03-17T09:59:38.963Z,1010.13
2018-03-17T10:00:38.979Z,1010.17
2018-03-17T10:01:38.996Z,1010.22
2018-03-17T10:02:39.013Z,1010.28
2018-03-17T10:03:39.031Z,1010.02
2018-03-17T10:04:39.047Z,1010.03
2018-03-17T10:05:39.064Z,1010.24
2018-03-17T10:06:39.081Z,1010.17
2018-03-17T10:07:39.148Z,1010.22
2018-03-17T10:08:39.116Z,1010.28
2018-03-17T10:09:39.132Z,1010.19
2018-03-17T10:10:39.149Z,1010.07
2018-03-17T10:11:39.166Z,1010.23
2018-03-17T10:12:39.182Z,1010.13
2018-03-17T10:13:39.198Z,1010.24
2018-03-17T10:14:39.215Z,1010.12
2018-03-17T10:15:39.282Z,1010.21
2018-03-17T10:16:39.247Z,1010.11
2018-03-17T10:17:39.264Z,1010.14
2018-03-17T10:18:39.282Z,1010.33
2018-03-17T10:19:39.297Z,1010.19
2018-03-17T10:20:39.313Z,1010.18
2018-03-17T10:21:39.329Z,1010.25
2018-03-17T10:22:39.347Z,1010.16
2018-03-17T10:23:39.361Z,1010.15
2018-03-17T10:25:39.394Z,1010.23
2018-03-17T10:26:39.410Z,1010.28
2018-03-17T10:27:39.425Z,1010.12
2018-03-17T10:28:39.441Z,1010.11
2018-03-17T10:29:39.457Z,1010.19
2018-03-17T10:30:39.473Z,1010.2
2018-03-17T10:31:39.488Z,1010.1
2018-03-17T10:32:39.504Z,1010.25
2018-03-17T10:33:39.520Z,1010.21
2018-03-17T10:34:39.537Z,1010.18
2018-03-17T10:35:39.551Z,1010.08
2018-03-17T10:36:39.579Z,1010.02
2018-03-17T10:37:39.584Z,1010.02
2018-03-17T10:38:39.598Z,1010.05
2018-03-17T10:39:39.613Z,1010.06
2018-03-17T10:41:39.645Z,1009.98
2018-03-17T10:42:39.661Z,1009.96
2018-03-17T10:43:39.676Z,1009.89
2018-03-17T10:44:39.692Z,1010.05
2018-03-17T10:45:39.707Z,1009.97
2018-03-17T10:46:39.724Z,1009.93
2018-03-17T10:47:39.738Z,1009.94
2018-03-17T10:48:39.754Z,1010
2018-03-17T10:49:39.768Z,1010.02
2018-03-17T10:50:39.785Z,1009.88
2018-03-17T10:51:39.800Z,1009.91
2018-03-17T10:52:39.818Z,1010
2018-03-17T10:53:39.830Z,1010.07
2018-03-17T10:54:39.845Z,1009.94
2018-03-17T10:55:39.860Z,1009.9
2018-03-17T10:57:39.890Z,1009.89
2018-03-17T10:58:39.905Z,1009.87
2018-03-17T10:59:39.921Z,1009.91
2018-03-17T11:00:39.935Z,1009.91
2018-03-17T11:01:39.950Z,1009.83
2018-03-17T11:02:39.971Z,1009.92
2018-03-17T11:03:39.979Z,1009.68
2018-03-17T11:04:39.992Z,1009.87
2018-03-17T11:05:40.008Z,1009.84
2018-03-17T11:06:40.032Z,1009.91
2018-03-17T11:07:40.036Z,1009.89
2018-03-17T11:08:40.054Z,1010.04
2018-03-17T11:09:40.064Z,1009.87
2018-03-17T11:10:40.079Z,1009.89
2018-03-17T11:11:40.104Z,1009.9
2018-03-17T11:13:40.121Z,1009.89
2018-03-17T11:14:40.134Z,1009.95
2018-03-17T11:15:40.148Z,1009.64
2018-03-17T11:16:40.212Z,1009.77
2018-03-17T11:17:40.179Z,1009.82
2018-03-17T11:18:40.189Z,1009.76
2018-03-17T11:19:40.203Z,1009.75
2018-03-17T11:20:40.217Z,1009.74
2018-03-17T11:21:40.231Z,1009.7
2018-03-17T11:22:40.245Z,1009.77
2018-03-17T11:23:40.262Z,1009.73
2018-03-17T11:24:40.271Z,1009.87
2018-03-17T11:25:40.286Z,1009.92
2018-03-17T11:26:40.299Z,1009.97
2018-03-17T11:28:40.328Z,1009.79
2018-03-17T11:29:40.340Z,1009.85
2018-03-17T11:30:40.354Z,1009.78
2018-03-17T11:31:40.368Z,1009.67
2018-03-17T11:32:40.387Z,1009.77
2018-03-17T11:33:40.394Z,1009.72
2018-03-17T11:34:40.409Z,1009.77
2018-03-17T11:35:40.423Z,1009.8
2018-03-17T11:36:40.436Z,1009.73
2018-03-17T11:37:40.449Z,1009.75
2018-03-17T11:38:40.514Z,1009.65
2018-03-17T11:39:40.479Z,1009.73
2018-03-17T11:40:40.512Z,1009.73
2018-03-17T11:41:40.504Z,1009.74
2018-03-17T11:42:40.519Z,1009.67
2018-03-17T11:43:40.545Z,1009.73
2018-03-17T11:44:40.545Z,1009.81
2018-03-17T11:45:40.559Z,1009.75
2018-03-17T11:46:40.574Z,1009.89
2018-03-17T11:47:40.586Z,1009.63
2018-03-17T11:48:40.651Z,1009.68
2018-03-17T11:49:40.615Z,1009.68
2018-03-17T11:50:40.629Z,1009.73
2018-03-17T11:51:40.642Z,1009.56
2018-03-17T11:52:40.656Z,1009.55
2018-03-17T11:53:40.670Z,1009.56
2018-03-17T11:54:40.700Z,1009.53
2018-03-17T11:55:40.699Z,1009.55
2018-03-17T11:56:40.711Z,1009.6
2018-03-17T11:57:40.726Z,1009.55
2018-03-17T11:58:40.740Z,1009.44
2018-03-17T12:00:40.817Z,1009.65
2018-03-17T12:01:40.781Z,1009.54
2018-03-17T12:02:40.794Z,1009.65
2018-03-17T12:03:40.809Z,1009.5
2018-03-17T12:04:40.823Z,1009.44
2018-03-17T12:05:40.838Z,1009.58
2018-03-17T12:06:40.850Z,1009.24
2018-03-17T12:07:40.865Z,1009.65
2018-03-17T12:08:40.879Z,1009.57
2018-03-17T12:09:40.892Z,1009.54
2018-03-17T12:10:40.906Z,1009.63
2018-03-17T12:11:40.920Z,1009.45
2018-03-17T12:12:40.934Z,1009.6
2018-03-17T12:13:40.948Z,1009.5
2018-03-17T12:14:40.961Z,1009.52
2018-03-17T12:16:40.989Z,1009.46
2018-03-17T12:17:41.005Z,1009.46
2018-03-17T12:18:41.016Z,1009.44
2018-03-17T12:19:41.030Z,1009.49
2018-03-17T12:20:41.044Z,1009.47
2018-03-17T12:21:41.058Z,1009.39
2018-03-17T12:22:41.072Z,1009.43
2018-03-17T12:23:41.085Z,1009.42
2018-03-17T12:24:41.098Z,1009.42
2018-03-17T12:25:41.113Z,1009.45
2018-03-17T12:26:41.127Z,1009.34
2018-03-17T12:27:41.141Z,1009.49
2018-03-17T12:28:41.154Z,1009.66
2018-03-17T12:29:41.168Z,1009.4
2018-03-17T12:30:41.182Z,1009.33
2018-03-17T12:32:41.310Z,1009.39
2018-03-17T12:33:41.223Z,1009.4
2018-03-17T12:34:41.238Z,1009.29
2018-03-17T12:35:41.251Z,1009.41
2018-03-17T12:36:41.265Z,1009.36
2018-03-17T12:37:41.279Z,1009.36
2018-03-17T12:38:41.293Z,1009.35
2018-03-17T12:39:41.306Z,1009.4
2018-03-17T12:40:41.320Z,1009.39
2018-03-17T12:41:41.334Z,1009.4
2018-03-17T12:42:41.350Z,1009.35
2018-03-17T12:43:41.361Z,1009.23
2018-03-17T12:44:41.376Z,1009.37
2018-03-17T12:45:41.393Z,1009.31
2018-03-17T12:46:41.403Z,1009.29
2018-03-17T12:48:41.431Z,1009.31
2018-03-17T12:49:41.445Z,1009.31